Terminal Aerodrome Forecast
Issued by NWS Atlanta, GA

Home | Current Version | Previous Version | Text Only | Print | Product List | Glossary On
Versions: 1 2 3 4 5 6 7 8 9 10 11 12 13 14 15 16 17 18 19
000
FTUS42 KFFC 190700 AAA
TAFMCN
TAF AMD
KMCN 190709Z 1907/2006 00000KT 6SM BR BKN200
     FM191000 06003KT 3SM BR BKN007
     FM191400 07005KT P6SM BKN015
     FM191600 08007KT P6SM SCT035
     FM191800 10008KT P6SM BKN050
     FM200100 08005KT P6SM SCT060=

USA.gov is the U.S. government's official web portal to all federal, state and local government web resources and services.